Time;durP1;ratioP1;P1;durP2;ratioP2;P2;SDS_P1;SDS_P2;PMS_P1;PMS_P2;Temp;Humidity;BMP_temperature;BMP_pressure;BME280_temperature;BME280_humidity;BME280_pressure;Samples;Min_cycle;Max_cycle;Signal;HPM_P1;HPM_P2
2021/03/28 00:01:48;;;;;;;20.95;6.95;;;23.10;52.50;;;;;;4898102;29;20036;-49
2021/03/28 00:04:16;;;;;;;15.73;6.38;;;23.10;52.50;;;;;;4913166;29;20068;-49
2021/03/28 00:06:45;;;;;;;20.15;6.85;;;23.10;52.50;;;;;;4967877;28;20457;-50
2021/03/28 00:09:11;;;;;;;14.98;5.47;;;23.00;52.50;;;;;;4957092;28;20038;-49
2021/03/28 00:11:51;;;;;;;19.13;6.68;;;23.10;52.50;;;;;;4992606;28;20362;-49
2021/03/28 00:14:35;;;;;;;17.10;7.32;;;23.00;52.50;;;;;;4992729;28;20089;-49
2021/03/28 00:17:25;;;;;;;18.40;7.45;;;23.00;52.50;;;;;;4954675;29;20043;-49
2021/03/28 00:19:57;;;;;;;27.70;8.30;;;23.00;52.40;;;;;;4954278;28;20452;-51
2021/03/28 00:23:06;;;;;;;16.70;7.43;;;23.10;52.50;;;;;;4973458;28;20041;-50
2021/03/28 00:25:34;;;;;;;21.95;9.07;;;23.00;52.40;;;;;;4962625;28;20050;-51
2021/03/28 00:28:19;;;;;;;18.77;8.68;;;23.10;52.40;;;;;;4973517;28;20038;-51
2021/03/28 00:30:46;;;;;;;18.35;8.13;;;23.00;52.40;;;;;;4973587;28;20503;-49
2021/03/28 00:33:14;;;;;;;18.38;7.88;;;23.10;52.40;;;;;;4973293;28;20097;-49
2021/03/28 00:35:46;;;;;;;26.92;10.00;;;23.00;52.40;;;;;;4973546;28;20030;-50
2021/03/28 00:38:18;;;;;;;15.13;6.95;;;23.00;52.40;;;;;;4974143;28;20389;-50
2021/03/28 00:41:03;;;;;;;20.38;8.23;;;23.00;52.40;;;;;;4956511;28;20110;-49
2021/03/28 00:43:45;;;;;;;19.27;8.77;;;23.00;52.40;;;;;;4973736;28;20029;-51
2021/03/28 00:46:24;;;;;;;15.35;7.32;;;23.00;52.40;;;;;;4963331;28;20110;-48
2021/03/28 00:48:54;;;;;;;14.60;6.68;;;23.00;52.40;;;;;;4972515;28;20070;-49
2021/03/28 00:51:24;;;;;;;20.60;8.43;;;23.00;52.40;;;;;;4974041;28;20043;-50
2021/03/28 00:53:56;;;;;;;14.52;7.25;;;23.00;52.30;;;;;;4956101;28;20042;-50
2021/03/28 00:56:48;;;;;;;21.85;7.70;;;23.00;52.30;;;;;;4955927;28;20370;-50
2021/03/28 00:59:27;;;;;;;14.93;7.22;;;23.10;52.50;;;;;;4956465;28;20129;-50
2021/03/28 01:02:13;;;;;;;18.92;7.72;;;23.00;52.40;;;;;;4965675;28;20055;-50
2021/03/28 01:05:06;;;;;;;16.98;7.47;;;23.10;52.40;;;;;;4955050;28;20094;-50
2021/03/28 01:07:43;;;;;;;15.88;7.35;;;23.00;52.30;;;;;;4956245;28;20061;-49
2021/03/28 01:10:53;;;;;;;17.73;7.57;;;23.00;52.30;;;;;;4993086;28;20493;-50
2021/03/28 01:13:47;;;;;;;17.67;7.63;;;23.00;52.30;;;;;;4996084;28;20046;-49
2021/03/28 01:16:35;;;;;;;14.57;7.90;;;23.00;52.30;;;;;;4980705;28;20031;-49
2021/03/28 01:19:32;;;;;;;17.55;7.97;;;23.00;52.30;;;;;;4976952;28;20039;-49
2021/03/28 01:22:21;;;;;;;15.25;7.70;;;23.00;52.30;;;;;;4976931;28;20061;-49
2021/03/28 01:25:12;;;;;;;15.27;6.35;;;23.00;52.30;;;;;;4971576;28;20046;-49
2021/03/28 01:27:58;;;;;;;;;;;23.00;52.20;;;;;;4959832;28;20789;-49
2021/03/28 01:30:43;;;;;;;15.85;6.78;;;23.10;52.40;;;;;;4976536;28;19949;-49
2021/03/28 01:33:14;;;;;;;14.30;7.30;;;23.10;52.10;;;;;;4976939;28;20042;-49
2021/03/28 01:36:06;;;;;;;14.00;7.22;;;23.10;52.10;;;;;;4976079;28;20047;-49
2021/03/28 01:38:41;;;;;;;15.98;7.03;;;23.10;52.20;;;;;;4983057;28;20504;-49
2021/03/28 01:41:14;;;;;;;15.45;7.63;;;23.10;52.20;;;;;;4996304;28;20396;-50
2021/03/28 01:44:14;;;;;;;16.15;6.95;;;23.10;52.20;;;;;;4978958;28;20046;-50
2021/03/28 01:46:55;;;;;;;12.90;6.18;;;23.10;52.30;;;;;;4976751;28;20043;-50
2021/03/28 01:49:32;;;;;;;14.10;6.32;;;23.10;52.20;;;;;;4976780;28;20440;-49
2021/03/28 01:52:14;;;;;;;15.25;6.80;;;23.10;52.20;;;;;;4976688;28;20043;-49
2021/03/28 01:54:49;;;;;;;15.10;6.80;;;23.10;52.20;;;;;;4976462;28;20130;-48
2021/03/28 01:57:43;;;;;;;14.00;6.93;;;23.10;52.20;;;;;;4976548;28;20160;-50
2021/03/28 02:00:21;;;;;;;17.70;6.20;;;23.00;52.20;;;;;;4976284;28;20394;-50
2021/03/28 02:03:23;;;;;;;19.42;7.80;;;23.10;52.50;;;;;;4976086;28;20109;-50
2021/03/28 02:05:59;;;;;;;15.65;7.55;;;23.00;52.30;;;;;;4976272;28;20042;-50
2021/03/28 02:08:40;;;;;;;19.63;6.20;;;23.10;52.20;;;;;;4980312;28;20153;-50
2021/03/28 02:11:32;;;;;;;19.40;6.75;;;23.10;52.30;;;;;;4995892;28;20546;-49
2021/03/28 02:14:30;;;;;;;15.60;6.50;;;23.00;52.30;;;;;;4978501;28;20049;-50
2021/03/28 02:17:19;;;;;;;16.67;6.55;;;23.00;52.20;;;;;;4986404;28;20097;-50
2021/03/28 02:20:08;;;;;;;17.80;6.60;;;23.00;52.30;;;;;;4975766;28;20421;-50
2021/03/28 02:22:55;;;;;;;18.58;5.80;;;23.00;52.30;;;;;;4975690;28;20036;-50
2021/03/28 02:25:50;;;;;;;16.35;6.63;;;23.00;52.30;;;;;;4976565;28;20449;-50
2021/03/28 02:28:46;;;;;;;20.88;6.82;;;23.00;52.30;;;;;;4962932;28;20039;-50
2021/03/28 02:31:51;;;;;;;15.88;6.10;;;23.00;52.40;;;;;;4975963;28;20027;-50
2021/03/28 02:34:29;;;;;;;18.52;6.30;;;23.00;52.40;;;;;;4973907;28;20093;-56
2021/03/28 02:37:26;;;;;;;19.65;6.50;;;23.00;52.30;;;;;;4975309;28;20035;-57
2021/03/28 02:40:24;;;;;;;15.98;6.28;;;23.00;52.30;;;;;;4991599;28;20051;-55
2021/03/28 02:42:56;;;;;;;11.45;5.65;;;23.00;52.30;;;;;;4994861;28;20041;-55
2021/03/28 02:45:34;;;;;;;21.13;6.63;;;23.00;52.80;;;;;;4978219;28;20038;-55
2021/03/28 02:48:14;;;;;;;15.23;6.40;;;23.00;52.30;;;;;;4975280;28;20035;-55
2021/03/28 02:50:58;;;;;;;16.02;6.40;;;23.00;52.30;;;;;;4975024;28;20396;-56
2021/03/28 02:53:32;;;;;;;19.13;5.78;;;23.00;52.30;;;;;;4975506;28;20473;-56
2021/03/28 02:56:04;;;;;;;17.58;6.05;;;23.00;52.30;;;;;;4974425;28;20051;-56
2021/03/28 02:59:12;;;;;;;16.13;6.32;;;23.00;52.30;;;;;;4975127;28;20493;-56
2021/03/28 03:02:06;;;;;;;14.02;6.13;;;22.90;52.30;;;;;;4928507;29;20051;-57
2021/03/28 03:05:00;;;;;;;14.00;6.00;;;22.90;52.20;;;;;;4955983;29;20051;-56
2021/03/28 03:07:46;;;;;;;18.80;6.18;;;23.00;52.20;;;;;;4968746;28;20421;-56
2021/03/28 03:10:53;;;;;;;15.75;6.60;;;23.00;52.20;;;;;;4994097;28;20511;-56
2021/03/28 03:13:43;;;;;;;16.13;6.43;;;23.00;52.30;;;;;;4990923;28;20743;-56
2021/03/28 03:16:44;;;;;;;11.70;5.68;;;22.90;52.20;;;;;;4975027;28;20362;-56
2021/03/28 03:19:25;;;;;;;15.55;6.00;;;22.90;52.10;;;;;;4974932;28;20045;-56
2021/03/28 03:21:51;;;;;;;;;;;23.00;52.20;;;;;;4958145;28;20445;-55
2021/03/28 03:24:54;;;;;;;17.52;5.93;;;23.00;52.30;;;;;;4974526;28;19997;-55
2021/03/28 03:27:41;;;;;;;11.88;5.47;;;23.00;52.00;;;;;;4973520;28;20045;-55
2021/03/28 03:30:14;;;;;;;16.02;5.75;;;23.00;52.00;;;;;;4961343;28;20213;-56
2021/03/28 03:33:07;;;;;;;13.52;5.80;;;23.00;52.00;;;;;;4974286;28;20096;-56
2021/03/28 03:35:45;;;;;;;14.45;6.38;;;22.90;52.10;;;;;;4956471;28;20038;-56
2021/03/28 03:38:46;;;;;;;12.88;5.75;;;22.90;52.10;;;;;;4974802;28;20146;-55
2021/03/28 03:41:42;;;;;;;12.45;5.70;;;22.90;52.20;;;;;;4961215;28;20050;-56
2021/03/28 03:44:15;;;;;;;16.00;5.82;;;22.90;52.10;;;;;;4974409;28;20039;-57
2021/03/28 03:46:56;;;;;;;13.95;6.57;;;22.90;52.00;;;;;;4974088;28;20035;-56
2021/03/28 03:49:34;;;;;;;17.17;6.55;;;22.90;52.00;;;;;;4974539;28;20075;-56
2021/03/28 03:52:16;;;;;;;15.20;6.47;;;22.90;52.00;;;;;;4973904;28;20043;-55
2021/03/28 03:54:45;;;;;;;18.52;7.10;;;22.90;51.90;;;;;;4974193;28;20143;-56
2021/03/28 03:57:34;;;;;;;16.73;6.63;;;22.90;51.90;;;;;;4956672;28;20129;-56
2021/03/28 04:00:32;;;;;;;15.32;5.75;;;22.90;51.90;;;;;;4944108;29;20043;-56
2021/03/28 04:03:22;;;;;;;18.42;6.28;;;22.90;51.80;;;;;;4973009;28;20051;-55
2021/03/28 04:06:23;;;;;;;18.33;6.10;;;22.90;51.90;;;;;;4972597;28;20031;-55
2021/03/28 04:08:55;;;;;;;14.55;6.13;;;22.90;51.90;;;;;;4924353;28;20436;-55
2021/03/28 04:11:44;;;;;;;16.38;5.78;;;22.90;51.70;;;;;;4955512;28;20090;-56
2021/03/28 04:14:16;;;;;;;20.67;6.72;;;22.90;51.80;;;;;;4955738;28;20041;-56
2021/03/28 04:17:06;;;;;;;20.30;6.50;;;22.90;51.80;;;;;;4980036;28;20038;-56
2021/03/28 04:20:00;;;;;;;18.17;7.13;;;22.90;51.80;;;;;;4993372;28;20042;-56
2021/03/28 04:22:35;;;;;;;14.70;6.50;;;22.90;51.80;;;;;;4985071;28;20476;-56
2021/03/28 04:25:37;;;;;;;20.75;6.75;;;22.90;51.70;;;;;;4973805;28;20047;-56
2021/03/28 04:28:41;;;;;;;23.60;5.75;;;22.90;51.80;;;;;;4974045;28;20046;-56
2021/03/28 04:31:39;;;;;;;21.27;6.20;;;22.90;51.80;;;;;;4973670;28;20485;-56
2021/03/28 04:34:24;;;;;;;15.00;5.72;;;22.80;51.80;;;;;;4956458;28;20050;-56
2021/03/28 04:36:50;;;;;;;21.50;7.35;;;22.80;51.70;;;;;;4954944;29;20050;-56
2021/03/28 04:39:37;;;;;;;22.05;7.25;;;22.90;51.80;;;;;;4955516;28;20183;-56
2021/03/28 04:42:32;;;;;;;13.93;6.68;;;22.80;51.80;;;;;;4973806;28;20071;-56
2021/03/28 04:45:26;;;;;;;18.95;6.30;;;22.80;51.80;;;;;;4969620;28;20037;-56
2021/03/28 04:48:27;;;;;;;17.17;5.80;;;22.80;51.80;;;;;;4985549;28;20072;-56
2021/03/28 04:51:34;;;;;;;17.55;6.72;;;22.80;51.90;;;;;;4955992;28;20050;-56
2021/03/28 04:54:15;;;;;;;21.48;7.10;;;22.80;51.90;;;;;;4902013;29;20415;-55
2021/03/28 04:56:54;;;;;;;14.00;6.03;;;22.80;51.80;;;;;;4968995;28;20042;-56
2021/03/28 04:59:45;;;;;;;15.10;5.65;;;22.80;51.80;;;;;;4977771;28;20432;-55
2021/03/28 05:02:20;;;;;;;;;;;22.80;51.90;;;;;;4977751;28;20047;-55
2021/03/28 05:05:24;;;;;;;17.58;6.43;;;22.80;52.00;;;;;;4977163;28;19914;-55
2021/03/28 05:08:11;;;;;;;23.08;6.40;;;22.80;51.50;;;;;;4977373;28;20047;-56
2021/03/28 05:10:55;;;;;;;13.80;6.05;;;22.80;51.40;;;;;;4958119;29;20397;-56
2021/03/28 05:13:35;;;;;;;14.10;6.32;;;22.70;51.40;;;;;;4959928;28;20047;-55
2021/03/28 05:16:39;;;;;;;18.63;5.93;;;22.80;51.50;;;;;;4980515;28;20405;-55
2021/03/28 05:19:43;;;;;;;17.23;5.25;;;22.70;51.50;;;;;;4957763;28;20043;-56
2021/03/28 05:22:20;;;;;;;12.43;5.50;;;22.70;51.50;;;;;;4973334;28;20082;-56
2021/03/28 05:25:18;;;;;;;13.55;6.18;;;22.70;51.40;;;;;;4976789;28;20041;-56
2021/03/28 05:27:47;;;;;;;18.00;6.13;;;22.70;51.30;;;;;;4977258;28;20043;-57
2021/03/28 05:30:40;;;;;;;15.80;6.55;;;22.70;51.20;;;;;;4976500;28;20023;-55
2021/03/28 05:33:18;;;;;;;13.38;5.55;;;22.60;51.20;;;;;;4977197;28;20034;-56
2021/03/28 05:36:16;;;;;;;16.65;6.20;;;22.70;51.30;;;;;;4976556;28;20094;-57
2021/03/28 05:39:00;;;;;;;14.32;5.85;;;22.60;51.30;;;;;;4976425;28;20038;-56
2021/03/28 05:41:52;;;;;;;12.27;5.43;;;22.60;51.40;;;;;;4959161;28;20121;-56
2021/03/28 05:44:35;;;;;;;13.48;5.97;;;22.60;51.30;;;;;;4976814;28;20035;-57
2021/03/28 05:47:35;;;;;;;15.85;6.57;;;22.60;51.30;;;;;;4976286;28;20402;-56
2021/03/28 05:50:22;;;;;;;13.23;5.53;;;22.60;51.40;;;;;;4957177;29;20401;-55
2021/03/28 05:53:28;;;;;;;12.95;5.93;;;22.60;51.30;;;;;;4956910;29;20031;-55
2021/03/28 05:56:18;;;;;;;11.68;6.15;;;22.60;51.30;;;;;;4972330;28;20098;-55
2021/03/28 05:58:59;;;;;;;;;;;22.60;51.30;;;;;;4938644;29;20039;-55
2021/03/28 06:01:25;;;;;;;;;;;22.60;51.60;;;;;;4946184;28;19913;-55
2021/03/28 06:04:00;;;;;;;;;;;22.70;51.50;;;;;;4959268;28;20327;-55
2021/03/28 06:06:44;;;;;;;;;;;22.70;51.40;;;;;;4975014;28;19910;-56
2021/03/28 06:09:10;;;;;;;;;;;22.80;51.40;;;;;;4976246;28;19910;-56
2021/03/28 06:11:39;;;;;;;;;;;22.80;51.30;;;;;;4959081;28;19928;-56
2021/03/28 06:14:23;;;;;;;;;;;22.80;51.20;;;;;;4968426;28;19911;-56
2021/03/28 06:16:55;;;;;;;;;;;22.80;51.10;;;;;;4964744;28;19941;-56
2021/03/28 06:19:30;;;;;;;;;;;22.80;51.00;;;;;;4960359;28;19961;-56
2021/03/28 06:22:18;;;;;;;;;;;22.90;51.10;;;;;;4956998;29;19915;-56
2021/03/28 06:25:03;;;;;;;;;;;22.80;50.90;;;;;;4958448;28;19973;-56
2021/03/28 06:27:28;;;;;;;;;;;22.80;50.80;;;;;;4957372;28;19910;-55
2021/03/28 06:30:14;;;;;;;;;;;22.80;50.80;;;;;;4973687;28;20347;-56
2021/03/28 06:32:40;;;;;;;;;;;22.90;50.90;;;;;;4976153;28;19939;-56
2021/03/28 06:35:07;;;;;;;;;;;22.90;50.90;;;;;;4958174;28;19952;-56
2021/03/28 06:37:45;;;;;;;;;;;22.90;50.90;;;;;;4957279;28;19911;-56
2021/03/28 06:40:37;;;;;;;;;;;22.90;50.90;;;;;;4969977;28;19918;-56
2021/03/28 06:43:11;;;;;;;;;;;22.90;50.90;;;;;;4975444;28;20267;-55
2021/03/28 06:45:52;;;;;;;;;;;22.90;50.90;;;;;;4939499;28;19916;-56
2021/03/28 06:48:18;;;;;;;;;;;22.90;50.90;;;;;;4972995;28;19983;-56
2021/03/28 06:51:02;;;;;;;;;;;23.00;50.90;;;;;;4976733;28;20341;-56
2021/03/28 06:53:47;;;;;;;;;;;23.00;50.90;;;;;;4975190;28;19910;-56
2021/03/28 06:56:31;;;;;;;;;;;23.00;50.90;;;;;;4976074;28;19910;-56
2021/03/28 06:58:57;;;;;;;;;;;23.00;50.80;;;;;;4947661;29;19989;-56
2021/03/28 07:01:22;;;;;;;;;;;23.00;50.80;;;;;;4964903;28;20021;-55
2021/03/28 07:04:07;;;;;;;;;;;23.00;50.80;;;;;;4963232;28;19922;-56
2021/03/28 07:06:41;;;;;;;;;;;23.00;50.80;;;;;;4950115;28;19914;-56
2021/03/28 07:09:19;;;;;;;;;;;23.10;50.80;;;;;;4974218;28;20320;-56
2021/03/28 07:11:54;;;;;;;;;;;23.10;50.70;;;;;;4975273;28;19963;-56
2021/03/28 07:14:38;;;;;;;;;;;23.10;50.70;;;;;;4965829;28;19925;-56
2021/03/28 07:17:10;;;;;;;;;;;23.10;50.60;;;;;;4974784;28;19917;-56
2021/03/28 07:19:55;;;;;;;;;;;23.10;50.60;;;;;;4959034;28;19918;-56
2021/03/28 07:22:27;;;;;;;;;;;23.10;50.60;;;;;;4955647;29;19914;-56
2021/03/28 07:25:15;;;;;;;;;;;23.10;50.50;;;;;;4968011;28;19910;-56
2021/03/28 07:27:58;;;;;;;;;;;23.10;50.50;;;;;;4974908;28;19910;-56
2021/03/28 07:30:44;;;;;;;;;;;23.10;50.40;;;;;;4973248;28;19945;-56
2021/03/28 07:33:30;;;;;;;;;;;23.10;50.30;;;;;;4974064;28;19954;-56
2021/03/28 07:36:06;;;;;;;;;;;23.10;50.30;;;;;;4956089;28;19918;-56
2021/03/28 07:38:50;;;;;;;;;;;23.10;50.30;;;;;;4966684;28;19914;-57
2021/03/28 07:41:29;;;;;;;;;;;23.10;50.30;;;;;;4955242;29;19968;-56
2021/03/28 07:43:58;;;;;;;;;;;23.00;50.20;;;;;;4973643;28;20260;-57
2021/03/28 07:46:42;;;;;;;;;;;23.00;50.30;;;;;;4974450;28;19914;-55
2021/03/28 07:49:27;;;;;;;;;;;23.00;50.30;;;;;;4974661;28;19910;-56
2021/03/28 07:51:59;;;;;;;;;;;23.00;50.30;;;;;;4974431;28;19910;-56
2021/03/28 07:54:34;;;;;;;;;;;23.00;50.30;;;;;;4973914;28;19957;-56
2021/03/28 07:57:03;;;;;;;;;;;23.00;50.30;;;;;;4972218;28;19948;-57
2021/03/28 07:59:32;;;;;;;;;;;23.00;50.30;;;;;;4973433;28;19933;-56
2021/03/28 08:01:57;;;;;;;;;;;23.00;50.30;;;;;;4961447;28;20304;-56
2021/03/28 08:04:42;;;;;;;;;;;23.00;50.30;;;;;;4955451;29;20051;-56
2021/03/28 08:07:18;;;;;;;;;;;23.00;50.30;;;;;;4960712;28;20369;-56
2021/03/28 08:10:03;;;;;;;;;;;23.10;50.30;;;;;;4988796;28;19964;-56
2021/03/28 08:12:37;;;;;;;;;;;23.00;50.30;;;;;;4974154;28;19956;-57
2021/03/28 08:15:22;;;;;;;;;;;23.10;50.30;;;;;;4974034;28;19965;-56
2021/03/28 08:18:06;;;;;;;;;;;23.10;50.30;;;;;;4972474;28;20004;-56
2021/03/28 08:20:38;;;;;;;;;;;23.10;50.20;;;;;;4972523;28;19918;-54
2021/03/28 08:23:13;;;;;;;;;;;23.10;50.20;;;;;;4954592;29;19918;-54
2021/03/28 08:25:57;;;;;;;;;;;23.10;50.20;;;;;;4955742;28;19980;-55
2021/03/28 08:28:31;;;;;;;;;;;23.20;50.20;;;;;;4954676;29;20323;-55
2021/03/28 08:31:15;;;;;;;;;;;23.10;50.10;;;;;;4957770;28;19910;-55
2021/03/28 08:33:50;;;;;;;;;;;23.20;50.10;;;;;;4975532;28;19909;-55
2021/03/28 08:36:35;;;;;;;;;;;23.20;50.20;;;;;;4975728;28;20004;-54
2021/03/28 08:39:07;;;;;;;;;;;23.20;50.20;;;;;;4977759;28;19910;-55
2021/03/28 08:41:53;;;;;;;;;;;23.20;50.10;;;;;;4973659;28;19990;-55
2021/03/28 08:44:34;;;;;;;;;;;23.30;50.10;;;;;;4970560;28;19910;-55
2021/03/28 08:47:11;;;;;;;;;;;23.30;50.10;;;;;;4965474;28;20439;-55
2021/03/28 08:49:39;;;;;;;;;;;23.40;50.10;;;;;;4973142;28;19981;-55
2021/03/28 08:52:23;;;;;;;;;;;23.40;50.00;;;;;;4992830;28;19953;-55
2021/03/28 08:54:49;;;;;;;;;;;23.40;50.00;;;;;;4992967;28;19914;-54
2021/03/28 08:57:34;;;;;;;;;;;23.40;50.00;;;;;;4970232;28;19910;-55
2021/03/28 09:00:00;;;;;;;;;;;23.50;50.00;;;;;;4975550;28;20008;-56
2021/03/28 09:02:25;;;;;;;;;;;23.50;49.90;;;;;;4993263;28;20068;-54
2021/03/28 09:05:03;;;;;;;;;;;23.60;49.90;;;;;;4975335;28;19921;-56
2021/03/28 09:07:30;;;;;;;;;;;23.60;50.00;;;;;;4973195;28;19922;-56
2021/03/28 09:09:55;;;;;;;;;;;23.60;49.90;;;;;;4972973;28;20299;-56
2021/03/28 09:12:34;;;;;;;;;;;23.70;49.90;;;;;;4972852;28;19953;-56
2021/03/28 09:15:02;;;;;;;;;;;23.70;49.90;;;;;;4972683;28;19909;-56
2021/03/28 09:17:32;;;;;;;;;;;23.70;49.80;;;;;;4973381;28;20364;-56
2021/03/28 09:20:16;;;;;;;;;;;23.80;49.80;;;;;;4972857;28;19910;-56
2021/03/28 09:22:48;;;;;;;;;;;23.80;49.70;;;;;;4973061;28;20423;-56
2021/03/28 09:25:20;;;;;;;;;;;23.90;49.50;;;;;;4971624;28;20004;-56
2021/03/28 09:28:01;;;;;;;;;;;23.90;49.40;;;;;;4955154;28;19909;-57
2021/03/28 09:30:33;;;;;;;;;;;23.90;49.30;;;;;;4972536;28;19941;-57
2021/03/28 09:33:15;;;;;;;;;;;23.90;49.10;;;;;;4973194;28;19917;-56
2021/03/28 09:35:41;;;;;;;;;;;23.90;48.90;;;;;;4958847;28;19945;-57
2021/03/28 09:38:07;;;;;;;;;;;24.00;48.80;;;;;;4975870;28;20363;-57
2021/03/28 09:40:44;;;;;;;;;;;24.00;48.80;;;;;;4975593;28;19972;-56
2021/03/28 09:43:16;;;;;;;;;;;24.00;48.70;;;;;;4975356;28;19910;-58
2021/03/28 09:45:42;;;;;;;;;;;24.00;48.80;;;;;;4975488;28;20360;-57
2021/03/28 09:48:14;;;;;;;;;;;24.00;48.70;;;;;;4975622;28;19917;-58
2021/03/28 09:50:57;;;;;;;;;;;24.00;48.80;;;;;;4975663;28;19914;-57
2021/03/28 09:53:29;;;;;;;;;;;23.90;48.70;;;;;;4958070;28;19923;-57
2021/03/28 09:55:58;;;;;;;;;;;24.00;48.70;;;;;;4974161;28;19910;-56
2021/03/28 09:58:42;;;;;;;;;;;24.00;48.70;;;;;;4975029;28;19906;-57
2021/03/28 10:01:23;;;;;;;;;;;24.00;48.70;;;;;;4974961;28;19914;-57
2021/03/28 10:04:05;;;;;;;;;;;24.00;48.70;;;;;;4974453;28;20009;-58
2021/03/28 10:06:31;;;;;;;;;;;24.10;48.80;;;;;;4974699;28;19933;-56
2021/03/28 10:08:59;;;;;;;;;;;24.10;48.80;;;;;;4974606;28;19906;-56
2021/03/28 10:11:25;;;;;;;;;;;24.10;48.70;;;;;;4974528;28;19917;-57
2021/03/28 10:13:56;;;;;;;;;;;24.20;48.70;;;;;;4974542;28;19921;-56
2021/03/28 10:16:25;;;;;;;;;;;24.30;49.20;;;;;;4974735;28;19914;-57
2021/03/28 10:18:54;;;;;;;;;;;24.30;48.40;;;;;;4974627;28;19906;-57
2021/03/28 10:21:29;;;;;;;;;;;24.30;48.30;;;;;;4974030;28;19914;-56
2021/03/28 10:24:14;;;;;;;;;;;24.40;48.30;;;;;;4973189;28;19910;-57
2021/03/28 10:26:55;;;;;;;;;;;24.50;48.20;;;;;;4973562;28;19926;-57
2021/03/28 10:29:33;;;;;;;;;;;24.50;48.10;;;;;;4973256;28;19956;-56
2021/03/28 10:32:08;;;;;;;;;;;24.50;48.00;;;;;;4973377;28;20364;-56
2021/03/28 10:34:57;;;;;;;;;;;24.60;48.00;;;;;;4973159;28;19910;-56
2021/03/28 10:37:42;;;;;;;;;;;24.60;47.90;;;;;;4973207;28;20332;-56
2021/03/28 10:40:14;;;;;;;;;;;24.60;47.90;;;;;;4955416;29;19910;-57
2021/03/28 10:43:12;;;;;;;;;;;24.70;47.90;;;;;;4955531;29;19926;-57
2021/03/28 10:45:56;;;;;;;;;;;24.70;47.80;;;;;;4913188;29;19910;-57
2021/03/28 10:48:59;;;;;;;;;;;24.80;47.90;;;;;;4955346;29;19921;-57
2021/03/28 10:51:36;;;;;;;;;;;24.90;47.90;;;;;;4955292;29;19989;-58
2021/03/28 10:54:07;;;;;;;;;;;25.00;47.80;;;;;;4955618;29;19917;-57
2021/03/28 10:56:45;;;;;;;;;;;25.00;47.70;;;;;;4955502;29;19954;-57
2021/03/28 10:59:40;;;;;;;;;;;25.10;47.60;;;;;;4938037;29;19911;-56
2021/03/28 11:02:25;;;;;;;;;;;25.10;47.60;;;;;;4955532;28;19918;-56
2021/03/28 11:04:56;;;;;;;;;;;25.20;47.50;;;;;;4955722;29;19914;-56
2021/03/28 11:07:28;;;;;;;;;;;25.30;47.50;;;;;;4955652;29;19997;-57
2021/03/28 11:09:57;;;;;;;;;;;25.40;47.40;;;;;;4955210;29;19918;-57
2021/03/28 11:12:34;;;;;;;;;;;25.50;47.40;;;;;;4955055;29;19911;-57
2021/03/28 11:15:01;;;;;;;;;;;25.50;47.30;;;;;;4955226;29;20280;-57
2021/03/28 11:17:33;;;;;;;;;;;25.60;47.40;;;;;;4954890;29;20456;-56
2021/03/28 11:20:34;;;;;;;;;;;25.80;47.40;;;;;;4954496;29;19911;-59
2021/03/28 11:23:05;;;;;;;;;;;25.80;47.20;;;;;;4860882;29;19916;-58
2021/03/28 11:25:31;;;;;;;;;;;25.90;47.00;;;;;;4876473;29;19935;-58
2021/03/28 11:28:03;;;;;;;;;;;25.90;46.70;;;;;;4875986;29;19907;-58
2021/03/28 11:30:43;;;;;;;;;;;26.00;46.60;;;;;;4860661;29;19912;-58
2021/03/28 11:33:15;;;;;;;;;;;26.10;46.40;;;;;;4860968;29;19912;-57
2021/03/28 11:35:43;;;;;;;;;;;26.10;46.20;;;;;;4876082;29;20337;-57
2021/03/28 11:38:18;;;;;;;;;;;26.10;46.10;;;;;;4876331;29;20363;-57
2021/03/28 11:41:02;;;;;;;;;;;26.10;46.20;;;;;;4860345;29;19915;-57
2021/03/28 11:43:31;;;;;;;;;;;26.20;46.30;;;;;;4875893;29;19912;-58
2021/03/28 11:46:03;;;;;;;;;;;26.40;46.30;;;;;;4875307;29;20499;-56
2021/03/28 11:48:33;;;;;;;;;;;26.50;46.20;;;;;;4875834;29;20367;-59
2021/03/28 11:51:19;;;;;;;;;;;26.60;46.10;;;;;;4876353;29;20376;-56
2021/03/28 11:53:51;;;;;;;;;;;26.80;46.10;;;;;;4876022;29;20382;-57
2021/03/28 11:56:50;;;;;;;;;;;26.90;45.90;;;;;;4891665;28;19910;-55
2021/03/28 11:59:22;;;;;;;;;;;27.10;45.70;;;;;;4876089;29;19928;-55
2021/03/28 12:01:55;;;;;;;;;;;27.30;45.60;;;;;;4876082;29;19926;-56
2021/03/28 12:04:27;;;;;;;;;;;27.50;45.30;;;;;;4876138;29;20275;-56
2021/03/28 12:07:13;;;;;;;;;;;27.60;44.80;;;;;;4876037;29;20215;-55
2021/03/28 12:09:39;;;;;;;;;;;27.80;44.40;;;;;;4869533;29;19911;-56
2021/03/28 12:12:34;;;;;;;;;;;27.80;43.80;;;;;;4876258;29;20312;-56
2021/03/28 12:15:18;;;;;;;;;;;27.80;43.60;;;;;;4867197;29;19919;-56
2021/03/28 12:17:45;;;;;;;;;;;27.70;43.40;;;;;;4876046;29;19907;-56
2021/03/28 12:20:10;;;;;;;;;;;27.70;43.30;;;;;;4875858;29;19970;-56
2021/03/28 12:22:43;;;;;;;;;;;27.50;43.30;;;;;;4875704;29;19939;-55
2021/03/28 12:25:15;;;;;;;;;;;27.40;43.20;;;;;;4875212;29;19966;-56
2021/03/28 12:27:56;;;;;;;;;;;27.30;43.20;;;;;;4875884;29;20020;-56
2021/03/28 12:30:28;;;;;;;;;;;27.20;43.20;;;;;;4875717;29;19915;-56
2021/03/28 12:32:56;;;;;;;;;;;27.10;43.30;;;;;;4875381;29;19919;-56
2021/03/28 12:35:25;;;;;;;;;;;27.00;43.30;;;;;;4917608;29;19922;-56
2021/03/28 12:37:51;;;;;;;;;;;26.80;43.30;;;;;;4934438;29;20408;-56
2021/03/28 12:40:43;;;;;;;;;;;26.80;43.40;;;;;;4934065;29;19911;-57
2021/03/28 12:43:22;;;;;;;;;;;26.70;43.50;;;;;;4914518;29;19993;-56
2021/03/28 12:45:48;;;;;;;;;;;26.60;43.60;;;;;;4934559;29;20401;-56
2021/03/28 12:48:30;;;;;;;;;;;26.50;43.70;;;;;;4934652;29;19993;-55
2021/03/28 12:50:56;;;;;;;;;;;26.40;43.80;;;;;;4917599;29;19918;-55
2021/03/28 12:53:22;;;;;;;;;;;26.30;44.00;;;;;;4934986;29;20163;-57
2021/03/28 12:55:50;;;;;;;;;;;26.30;44.10;;;;;;4933610;29;19934;-56
2021/03/28 12:58:16;;;;;;;;;;;26.30;44.20;;;;;;4934801;29;20056;-56
2021/03/28 13:01:00;;;;;;;;;;;26.20;44.30;;;;;;4934573;29;20046;-57
2021/03/28 13:03:26;;;;;;;;;;;26.20;44.50;;;;;;4946282;29;19922;-57
2021/03/28 13:06:02;;;;;;;;;;;26.10;44.50;;;;;;4953832;29;19921;-57
2021/03/28 13:08:32;;;;;;;;;;;26.10;44.60;;;;;;4955565;28;19910;-57
2021/03/28 13:10:59;;;;;;;;;;;26.10;44.70;;;;;;4957454;29;19965;-56
2021/03/28 13:13:26;;;;;;;;;;;26.00;44.70;;;;;;4957303;29;19985;-57
2021/03/28 13:15:52;;;;;;;;;;;26.00;44.80;;;;;;4957142;29;20349;-57
2021/03/28 13:18:27;;;;;;;;;;;26.00;44.80;;;;;;4957208;29;19945;-57
2021/03/28 13:20:53;;;;;;;;;;;25.90;44.80;;;;;;4957095;29;20376;-57
2021/03/28 13:23:44;;;;;;;;;;;25.90;44.90;;;;;;4957425;29;19918;-57
2021/03/28 13:26:14;;;;;;;;;;;25.90;44.80;;;;;;4954267;29;19914;-57
2021/03/28 13:28:44;;;;;;;;;;;25.90;44.70;;;;;;4957282;29;19925;-57
2021/03/28 13:31:22;;;;;;;;;;;25.80;44.70;;;;;;4957154;29;19910;-56
2021/03/28 13:33:49;;;;;;;;;;;25.80;44.70;;;;;;4957557;29;19914;-57
2021/03/28 13:36:21;;;;;;;;;;;25.80;45.30;;;;;;4956907;29;19917;-56
2021/03/28 13:39:16;;;;;;;;;;;25.80;44.80;;;;;;4957249;29;19910;-56
2021/03/28 13:42:00;;;;;;;;;;;25.80;44.80;;;;;;4897345;29;19959;-57
2021/03/28 13:44:45;;;;;;;;;;;25.80;44.90;;;;;;4897812;29;19911;-58
2021/03/28 13:47:12;;;;;;;;;;;25.70;44.90;;;;;;4897732;29;20326;-57
2021/03/28 13:49:41;;;;;;;;;;;25.80;45.00;;;;;;4897679;29;19987;-57
2021/03/28 13:52:12;;;;;;;;;;;25.70;45.00;;;;;;4897429;29;19914;-56
2021/03/28 13:54:39;;;;;;;;;;;25.70;45.10;;;;;;4897930;29;19998;-57
2021/03/28 13:57:06;;;;;;;;;;;25.70;45.10;;;;;;4897719;29;19911;-57
2021/03/28 13:59:34;;;;;;;;;;;25.60;45.10;;;;;;4897542;29;20432;-57
2021/03/28 14:02:21;;;;;;;;;;;25.70;45.30;;;;;;4897184;29;19934;-56
2021/03/28 14:05:03;;;;;;;;;;;25.60;45.30;;;;;;4897238;29;19924;-57
2021/03/28 14:07:41;;;;;;;;;;;25.70;45.40;;;;;;4897795;29;20020;-56
2021/03/28 14:10:13;;;;;;;;;;;25.70;45.50;;;;;;4897144;29;19919;-55
2021/03/28 14:12:41;;;;;;;;;;;25.70;45.60;;;;;;4896712;29;20409;-55
2021/03/28 14:15:07;;;;;;;;;;;25.70;45.60;;;;;;4896630;29;19911;-54
2021/03/28 14:17:33;;;;;;;;;;;25.70;45.60;;;;;;4908361;29;19918;-53
2021/03/28 14:20:13;;;;;;;;;;;25.70;45.70;;;;;;4937400;29;20257;-54
2021/03/28 14:22:48;;;;;;;;;;;25.70;45.70;;;;;;4937227;29;19942;-55
2021/03/28 14:25:30;;;;;;;;;;;25.70;45.70;;;;;;4937057;29;19917;-54
2021/03/28 14:27:56;;;;;;;;;;;25.80;45.80;;;;;;4936832;29;19911;-54
2021/03/28 14:30:24;;;;;;;;;;;25.80;45.70;;;;;;4937039;29;19911;-56
2021/03/28 14:32:59;;;;;;;;;;;25.80;45.70;;;;;;4936313;29;19915;-55
2021/03/28 14:35:33;;;;;;;;;;;25.90;45.80;;;;;;4937259;29;20021;-54
2021/03/28 14:38:11;;;;;;;;;;;25.80;45.70;;;;;;4937206;29;19998;-54
2021/03/28 14:40:54;;;;;;;;;;;25.80;45.80;;;;;;4937825;29;19942;-54
2021/03/28 14:43:22;;;;;;;;;;;25.90;45.80;;;;;;4937864;29;19942;-53
2021/03/28 14:45:51;;;;;;;;;;;25.90;45.80;;;;;;4938253;29;19907;-51